Sommer S — WDG3830 — position and weather

sailwx.info

Track history (hours):
 
Tides and Currents Weather Stations Pressure Air Temp Water Temp Dewpoint Dewpoint Depression Visibility Wind Speed Wind Dir Waves Ship Positions

Sommer S

Owner: Shaver Transportation Company, Portland, OR. More information available from US FCC via Universal Licensing System and Coast Guard Vessel Documentation Center.

Last reported at 2017-May-01 06:00 UTC. Time now 2017-May-01 06:16 UTC.
Position N 46°03' W 122°53'.

Length 25 m; draft 16.5 m.

Type: Tug. MMSI: 367530080.

Date/timePositionNaut miles runAvg speedWind from/ knotsBaromVisibWave heightAir tempDewpointWater temp
2017-May-01 06:00N 46°03' W 122°53'0 0.0
2017-May-01 05:31N 46°03' W 122°53'0 0.0
2017-May-01 05:01N 46°03' W 122°53'0 0.0
2017-May-01 04:31N 46°03' W 122°53'0 0.0
2017-May-01 04:01N 46°03' W 122°53'0 0.0
2017-May-01 03:30N 46°03' W 122°53'0 0.0
2017-May-01 03:00N 46°03' W 122°53'0 0.0
2017-May-01 02:31N 46°03' W 122°53'0 0.0
2017-May-01 02:00N 46°03' W 122°53'0 0.0
2017-May-01 01:31N 46°03' W 122°53'0 0.0
2017-May-01 01:00N 46°03' W 122°53'0 0.0
2017-May-01 00:31N 46°03' W 122°53'0 0.0
2017-May-01 00:01N 46°03' W 122°53'0 0.0
2017-Apr-30 23:31N 46°03' W 122°53'0 0.0
2017-Apr-30 23:01N 46°03' W 122°53'0 0.0
2017-Apr-30 22:31N 46°03' W 122°53'0 0.0
2017-Apr-30 22:01N 46°03' W 122°53'0 0.1
2017-Apr-30 21:31N 46°03' W 122°53'0 0.0
2017-Apr-30 21:01N 46°03' W 122°53'3 5.8
2017-Apr-30 20:30N 46°05' W 122°55'1 2.7
2017-Apr-30 20:00N 46°06' W 122°56'0 0.4
2017-Apr-30 19:31N 46°06' W 122°57'0 0.4
2017-Apr-30 19:00N 46°06' W 122°56'0 0.0
2017-Apr-30 18:30N 46°06' W 122°56'0 0.0
2017-Apr-30 18:00N 46°06' W 122°56'0 0.0
2017-Apr-30 17:30N 46°06' W 122°56'0 0.0
2017-Apr-30 17:00N 46°06' W 122°56'1 2.9
2017-Apr-30 16:30N 46°05' W 122°55'713.8
2017-Apr-30 16:00N 45°59' W 122°50'0 0.2
2017-Apr-30 15:30N 45°59' W 122°50'0 0.1
2017-Apr-30 15:00N 45°59' W 122°50'0 0.2
2017-Apr-30 14:31N 45°59' W 122°50'1312.9
2017-Apr-30 13:30N 45°46' W 122°46'713.9
2017-Apr-30 13:00N 45°39' W 122°46'4 7.3
2017-Apr-30 12:30N 45°36' W 122°47'0 0.1
2017-Apr-30 12:00N 45°36' W 122°47'1 2.3
2017-Apr-30 11:30N 45°37' W 122°47'0 0.3
2017-Apr-30 11:00N 45°37' W 122°47'0 0.0
2017-Apr-30 10:30N 45°37' W 122°47'0 0.0
2017-Apr-30 10:00N 45°37' W 122°47'0 0.0
2017-Apr-30 09:30N 45°37' W 122°47'2 3.9
2017-Apr-30 09:00N 45°39' W 122°46'1 1.7
2017-Apr-30 08:30N 45°39' W 122°45'1 1.2
2017-Apr-30 08:00N 45°39' W 122°45'0 0.6
2017-Apr-30 07:30N 45°39' W 122°46'1 1.6
2017-Apr-30 07:00N 45°39' W 122°45'0 0.0
2017-Apr-30 06:30N 45°39' W 122°45'0 0.1
2017-Apr-30 06:00N 45°39' W 122°45'0 0.0
2017-Apr-30 05:30N 45°39' W 122°45'0 0.0
2017-Apr-30 05:00N 45°39' W 122°45'0 0.0
2017-Apr-30 04:30N 45°39' W 122°45'0 0.0
2017-Apr-30 04:00N 45°39' W 122°45'0 0.0
2017-Apr-30 03:30N 45°39' W 122°45'0 0.0
2017-Apr-30 03:00N 45°39' W 122°45'0 0.0
2017-Apr-30 02:30N 45°39' W 122°45'1 1.1
2017-Apr-30 02:00N 45°39' W 122°45'3 6.2
2017-Apr-30 01:30N 45°36' W 122°47'0 0.1
2017-Apr-30 01:00N 45°36' W 122°47'0 0.2
2017-Apr-30 00:30N 45°36' W 122°47'2 3.9
2017-Apr-30 00:00N 45°38' W 122°47'2 4.8
2017-Apr-29 23:30N 45°39' W 122°44'1 1.1
2017-Apr-29 23:00N 45°38' W 122°44'1 2.3
2017-Apr-29 22:30N 45°39' W 122°45'0 0.0
2017-Apr-29 22:00N 45°39' W 122°45'0 0.0
2017-Apr-29 21:30N 45°39' W 122°45'0 0.0
2017-Apr-29 21:00N 45°39' W 122°45'0 0.0
2017-Apr-29 20:30N 45°39' W 122°45'0 0.0
2017-Apr-29 20:00N 45°39' W 122°45'0 0.0
2017-Apr-29 19:30N 45°39' W 122°45'0 0.0
2017-Apr-29 19:00N 45°39' W 122°45'0 0.0
2017-Apr-29 18:30N 45°39' W 122°45'0 0.7
2017-Apr-29 18:00N 45°39' W 122°45'2 3.7
2017-Apr-29 17:30N 45°38' W 122°42'0 0.0
2017-Apr-29 17:00N 45°38' W 122°42'0 0.1
2017-Apr-29 16:30N 45°38' W 122°42'1 1.6
2017-Apr-29 16:00N 45°38' W 122°43'3 5.1
2017-Apr-29 15:30N 45°38' W 122°47'4 8.8
2017-Apr-29 15:00N 45°34' W 122°44'3 3.4
2017-Apr-29 14:00N 45°32' W 122°41'2 4.9
2017-Apr-29 13:30N 45°34' W 122°43'4 8.6
2017-Apr-29 13:00N 45°37' W 122°47'3 5.8
2017-Apr-29 12:30N 45°39' W 122°44'0 0.3
2017-Apr-29 12:00N 45°39' W 122°44'0 0.8
2017-Apr-29 11:30N 45°39' W 122°45'0 0.0
2017-Apr-29 11:00N 45°39' W 122°45'0 0.0
2017-Apr-29 10:30N 45°39' W 122°45'0 0.0
2017-Apr-29 10:00N 45°39' W 122°45'0 0.0
2017-Apr-29 09:30N 45°39' W 122°45'0 0.0
2017-Apr-29 09:00N 45°39' W 122°45'0 0.0
2017-Apr-29 08:30N 45°39' W 122°45'0 0.0
2017-Apr-29 08:00N 45°39' W 122°45'1 2.2
2017-Apr-29 07:30N 45°39' W 122°46'0 0.9
2017-Apr-29 07:00N 45°39' W 122°46'2 4.9
2017-Apr-29 06:30N 45°38' W 122°43'2 4.6
2017-Apr-29 06:00N 45°39' W 122°45'1 2.3
2017-Apr-29 05:30N 45°39' W 122°46'0 0.2
2017-Apr-29 05:00N 45°38' W 122°47'2 3.7
2017-Apr-29 04:30N 45°37' W 122°47'4 7.8
2017-Apr-29 04:00N 45°34' W 122°44'3 5.2
2017-Apr-29 03:30N 45°32' W 122°41'1 1.7
2017-Apr-29 03:00N 45°33' W 122°42'1 2.5
2017-Apr-29 02:30N 45°32' W 122°40'0 0.3
2017-Apr-29 02:00N 45°32' W 122°40'0 0.0
2017-Apr-29 01:30N 45°32' W 122°40'2 5.1
2017-Apr-29 01:00N 45°33' W 122°43'1 1.4
2017-Apr-29 00:30N 45°34' W 122°44'0 0.0
2017-Apr-29 00:00N 45°34' W 122°44'0 0.0
2017-Apr-28 23:30N 45°34' W 122°44'0 0.0
2017-Apr-28 23:00N 45°34' W 122°44'1 1.4
2017-Apr-28 22:30N 45°33' W 122°43'2 4.0
2017-Apr-28 22:00N 45°32' W 122°41'0 0.0
2017-Apr-28 21:30N 45°32' W 122°41'3 5.1
2017-Apr-28 21:00N 45°34' W 122°43'1 2.0
2017-Apr-28 20:30N 45°34' W 122°44'4 8.2
2017-Apr-28 20:00N 45°38' W 122°47'3 6.9
2017-Apr-28 19:30N 45°38' W 122°42'0 0.8
2017-Apr-28 19:00N 45°38' W 122°43'3 5.1
2017-Apr-28 18:30N 45°38' W 122°47'1 2.5
2017-Apr-28 18:00N 45°39' W 122°45'0 0.0
2017-Apr-28 17:30N 45°39' W 122°45'0 0.1
2017-Apr-28 17:00N 45°39' W 122°45'4 7.1
2017-Apr-28 16:30N 45°42' W 122°46'4 8.8
2017-Apr-28 16:00N 45°46' W 122°46'4 8.5
2017-Apr-28 15:30N 45°50' W 122°47'4 8.0
2017-Apr-28 15:00N 45°54' W 122°49'7 7.4
2017-Apr-28 14:00N 46°01' W 122°52'0 0.7
2017-Apr-28 13:30N 46°02' W 122°52'0 0.0
2017-Apr-28 13:00N 46°02' W 122°52'0 0.0
2017-Apr-28 12:30N 46°02' W 122°52'0 0.0
2017-Apr-28 12:00N 46°02' W 122°52'0 0.0
2017-Apr-28 11:30N 46°02' W 122°52'0 0.2
2017-Apr-28 11:00N 46°02' W 122°52'0 0.2
2017-Apr-28 10:30N 46°02' W 122°52'0 0.1
2017-Apr-28 10:00N 46°02' W 122°52'0 0.0
2017-Apr-28 09:30N 46°02' W 122°52'0 0.0
2017-Apr-28 09:00N 46°02' W 122°52'0 0.3
2017-Apr-28 08:30N 46°02' W 122°52'3 6.8
2017-Apr-28 08:00N 46°05' W 122°54'1 1.7
2017-Apr-28 07:30N 46°05' W 122°55'0 0.0
2017-Apr-28 07:00N 46°05' W 122°55'0 0.0
2017-Apr-28 06:30N 46°05' W 122°55'3 6.6
2017-Apr-28 06:00N 46°03' W 122°53'0 0.0
2017-Apr-28 05:30N 46°03' W 122°53'0 0.0
2017-Apr-28 05:00N 46°03' W 122°53'0 0.0
2017-Apr-28 04:30N 46°03' W 122°53'2 4.8
2017-Apr-28 04:00N 46°05' W 122°54'1 2.1
2017-Apr-28 03:30N 46°05' W 122°55'0 0.0
2017-Apr-28 03:00N 46°05' W 122°55'0 0.0
2017-Apr-28 02:30N 46°05' W 122°55'0 0.0
2017-Apr-28 02:00N 46°05' W 122°55'1 1.9
2017-Apr-28 01:30N 46°06' W 122°56'0 0.0
2017-Apr-28 01:00N 46°06' W 122°56'0 0.2
2017-Apr-28 00:30N 46°06' W 122°56'0 0.3
2017-Apr-28 00:00N 46°06' W 122°56'1 2.3
2017-Apr-27 23:30N 46°07' W 122°58'1 1.2
2017-Apr-27 23:00N 46°07' W 122°59'0 0.2
2017-Apr-27 22:30N 46°07' W 122°58'1 1.6
2017-Apr-27 22:00N 46°06' W 122°58'0 0.0
2017-Apr-27 21:31N 46°06' W 122°58'0 0.0
2017-Apr-27 21:00N 46°06' W 122°58'0 0.0
2017-Apr-27 20:30N 46°06' W 122°58'0 0.0
2017-Apr-27 20:00N 46°06' W 122°58'0 0.0
2017-Apr-27 19:31N 46°06' W 122°58'0 0.0
2017-Apr-27 19:00N 46°06' W 122°58'3 6.5
2017-Apr-27 18:31N 46°04' W 122°54'611.1
2017-Apr-27 18:01N 45°59' W 122°50'0 0.1
2017-Apr-27 17:31N 45°59' W 122°50'0 0.0
2017-Apr-27 17:01N 45°59' W 122°50'0 0.0
2017-Apr-27 16:31N 45°59' W 122°50'0 0.0
2017-Apr-27 16:00N 45°59' W 122°50'3 6.2
2017-Apr-27 15:30N 46°02' W 122°53'4 8.0
2017-Apr-27 15:01N 46°05' W 122°56'1 1.3
2017-Apr-27 14:01N 46°06' W 122°57'0 0.4
2017-Apr-27 13:30N 46°06' W 122°57'0 0.5
2017-Apr-27 13:01N 46°06' W 122°57'4 7.6
2017-Apr-27 12:31N 46°04' W 122°53'5 9.0
2017-Apr-27 12:01N 45°59' W 122°50'0 0.0
2017-Apr-27 11:30N 45°59' W 122°50'0 0.0
2017-Apr-27 11:01N 45°59' W 122°50'0 0.0
2017-Apr-27 10:31N 45°59' W 122°50'0 0.0
2017-Apr-27 10:00N 45°59' W 122°50'0 0.0
2017-Apr-27 09:31N 45°59' W 122°50'0 0.0
2017-Apr-27 09:01N 45°59' W 122°50'0 0.5
2017-Apr-27 08:30N 45°59' W 122°50'0 0.0
2017-Apr-27 08:00N 45°59' W 122°50'0 0.1
2017-Apr-27 07:31N 45°59' W 122°50'0 0.0
2017-Apr-27 07:01N 45°59' W 122°50'0 0.0
2017-Apr-27 06:31N 45°59' W 122°50'0 0.0
2017-Apr-27 06:00N 45°59' W 122°50'0 0.0
2017-Apr-27 05:30N 45°59' W 122°50'0 0.1
2017-Apr-27 05:01N 45°59' W 122°50'0 0.1
2017-Apr-27 04:30N 45°59' W 122°50'0 0.0
2017-Apr-27 04:01N 45°59' W 122°50'0 0.0
2017-Apr-27 03:31N 45°59' W 122°50'0 0.0
2017-Apr-27 03:01N 45°59' W 122°50'2 3.8
2017-Apr-27 02:30N 45°58' W 122°49'5 9.4
2017-Apr-27 02:00N 45°53' W 122°48'5 9.2
2017-Apr-27 01:30N 45°48' W 122°48'5 9.2
2017-Apr-27 01:00N 45°44' W 122°46'4 8.9
2017-Apr-27 00:30N 45°39' W 122°46'1 1.8
2017-Apr-27 00:00N 45°39' W 122°45'0 0.5
2017-Apr-26 23:30N 45°39' W 122°45'4 7.3
2017-Apr-26 23:00N 45°37' W 122°40'1 1.8
2017-Apr-26 22:30N 45°37' W 122°41'1 2.8
2017-Apr-26 21:59N 45°38' W 122°43'2 3.7
2017-Apr-26 21:30N 45°39' W 122°45'4 7.6
2017-Apr-26 21:00N 45°35' W 122°46'510.0
2017-Apr-26 20:30N 45°32' W 122°40'0 0.7
2017-Apr-26 20:00N 45°32' W 122°41'1 1.8
2017-Apr-26 19:30N 45°33' W 122°42'1 1.2
2017-Apr-26 19:00N 45°33' W 122°42'1 2.3
2017-Apr-26 18:30N 45°34' W 122°44'0 0.0
2017-Apr-26 18:01N 45°34' W 122°44'0 0.0
2017-Apr-26 17:30N 45°34' W 122°44'0 0.6
2017-Apr-26 17:00N 45°34' W 122°44'4 8.1
2017-Apr-26 16:30N 45°37' W 122°47'3 5.7
2017-Apr-26 16:00N 45°38' W 122°44'0 0.0
2017-Apr-26 15:30N 45°38' W 122°44'0 0.0
2017-Apr-26 15:00N 45°38' W 122°44'0 0.0
2017-Apr-26 14:30N 45°38' W 122°44'0 0.0
2017-Apr-26 13:30N 45°38' W 122°44'0 0.0
2017-Apr-26 13:00N 45°38' W 122°44'0 0.0
2017-Apr-26 12:30N 45°38' W 122°44'0 0.0
2017-Apr-26 12:00N 45°38' W 122°44'0 0.0
2017-Apr-26 11:30N 45°38' W 122°44'0 0.0
2017-Apr-26 11:00N 45°38' W 122°44'0 0.0
2017-Apr-26 10:30N 45°38' W 122°44'0 0.0
2017-Apr-26 10:00N 45°38' W 122°44'0 0.0
2017-Apr-26 09:30N 45°38' W 122°44'0 0.0
2017-Apr-26 09:00N 45°38' W 122°44'1 1.1
2017-Apr-26 08:30N 45°38' W 122°43'0 0.1
2017-Apr-26 08:00N 45°38' W 122°43'1 2.1
2017-Apr-26 07:30N 45°39' W 122°44'0 0.6
2017-Apr-26 07:00N 45°39' W 122°45'0 0.2
2017-Apr-26 06:31N 45°39' W 122°45'4 7.4
2017-Apr-26 06:00N 45°42' W 122°46'4 8.9
2017-Apr-26 05:30N 45°47' W 122°46'4 8.4
2017-Apr-26 05:01N 45°51' W 122°47'4 8.2
2017-Apr-26 04:31N 45°55' W 122°49'4 8.3
2017-Apr-26 04:00N 45°59' W 122°50'0 0.9
2017-Apr-26 03:30N 45°59' W 122°50'0 0.3
2017-Apr-26 03:00N 45°59' W 122°50'0 0.3
2017-Apr-26 02:31N 45°59' W 122°50'0 0.0
2017-Apr-26 02:01N 45°59' W 122°50'0 0.0
2017-Apr-26 01:31N 45°59' W 122°50'0 0.5
2017-Apr-26 01:00N 45°59' W 122°50'1 2.6
2017-Apr-26 00:30N 46°01' W 122°51'1 2.9
2017-Apr-26 00:00N 46°02' W 122°53'0 0.0
2017-Apr-25 23:31N 46°02' W 122°53'0 0.0
2017-Apr-25 23:01N 46°02' W 122°53'0 0.1
2017-Apr-25 22:30N 46°02' W 122°53'0 0.6
2017-Apr-25 22:00N 46°02' W 122°53'3 5.2
2017-Apr-25 21:30N 46°05' W 122°54'2 4.7
2017-Apr-25 21:00N 46°06' W 122°56'0 0.1
2017-Apr-25 20:30N 46°06' W 122°56'0 0.0
2017-Apr-25 20:00N 46°06' W 122°56'1 1.0
2017-Apr-25 19:30N 46°05' W 122°56'0 0.0
2017-Apr-25 19:00N 46°05' W 122°56'5 9.5
2017-Apr-25 18:31N 46°01' W 122°52'3 5.8
2017-Apr-25 18:01N 45°59' W 122°50'0 0.1
2017-Apr-25 17:31N 45°59' W 122°50'2 5.0
2017-Apr-25 17:01N 46°01' W 122°52'0 0.1
2017-Apr-25 16:30N 46°01' W 122°52'2 4.0
2017-Apr-25 16:00N 46°03' W 122°53'3 6.0
2017-Apr-25 15:30N 46°05' W 122°56'0 0.3
2017-Apr-25 15:00N 46°05' W 122°56'0 0.8
2017-Apr-25 14:30N 46°05' W 122°55'1010.2
2017-Apr-25 13:31N 45°56' W 122°48'2 4.3
2017-Apr-25 13:00N 45°58' W 122°50'1 1.7
2017-Apr-25 12:31N 45°59' W 122°50'0 0.0
2017-Apr-25 12:01N 45°59' W 122°50'0 0.0
2017-Apr-25 11:30N 45°59' W 122°50'0 0.0
2017-Apr-25 11:00N 45°59' W 122°50'3 5.5
2017-Apr-25 10:30N 46°01' W 122°52'1 2.4
2017-Apr-25 10:01N 46°03' W 122°53'1 2.0
2017-Apr-25 09:31N 46°04' W 122°53'2 4.4
2017-Apr-25 09:01N 46°05' W 122°55'1 1.3
2017-Apr-25 08:30N 46°05' W 122°56'0 0.0
2017-Apr-25 08:00N 46°05' W 122°56'0 0.0
2017-Apr-25 07:31N 46°05' W 122°56'0 0.0
2017-Apr-25 07:01N 46°05' W 122°56'0 0.0
2017-Apr-25 06:30N 46°05' W 122°56'0 0.0
2017-Apr-25 06:01N 46°05' W 122°56'0 0.0
2017-Apr-25 05:30N 46°05' W 122°56'0 0.0
2017-Apr-25 05:00N 46°05' W 122°56'0 0.0
2017-Apr-25 04:30N 46°05' W 122°56'0 0.0
2017-Apr-25 04:01N 46°05' W 122°56'0 0.0
2017-Apr-25 03:30N 46°05' W 122°56'0 0.0
2017-Apr-25 03:00N 46°05' W 122°56'0 0.0
2017-Apr-25 02:31N 46°05' W 122°56'0 0.0
2017-Apr-25 02:00N 46°05' W 122°56'0 0.0
2017-Apr-25 01:30N 46°05' W 122°56'0 0.0
2017-Apr-25 01:00N 46°05' W 122°56'0 0.0
2017-Apr-25 00:30N 46°05' W 122°56'0 0.0
2017-Apr-25 00:00N 46°05' W 122°56'0 0.0
2017-Apr-24 23:31N 46°05' W 122°56'0 0.0
2017-Apr-24 23:00N 46°05' W 122°56'0 0.0
2017-Apr-24 22:31N 46°05' W 122°56'0 0.0
2017-Apr-24 22:00N 46°05' W 122°56'0 0.0
2017-Apr-24 21:30N 46°05' W 122°56'0 0.0
2017-Apr-24 21:00N 46°05' W 122°56'0 0.0
2017-Apr-24 20:30N 46°05' W 122°56'0 0.0
2017-Apr-24 20:00N 46°05' W 122°56'0 0.0
2017-Apr-24 19:30N 46°05' W 122°56'0 0.0
2017-Apr-24 19:01N 46°05' W 122°56'0 0.0
2017-Apr-24 18:31N 46°05' W 122°56'0 0.0
2017-Apr-24 18:01N 46°05' W 122°56'0 0.0
2017-Apr-24 17:30N 46°05' W 122°56'0 0.0
2017-Apr-24 17:00N 46°05' W 122°56'0 0.0
2017-Apr-24 16:30N 46°05' W 122°56'0 0.0
2017-Apr-24 15:53N 46°05' W 122°56'0 0.0
2017-Apr-24 15:30N 46°05' W 122°56'0 0.0
2017-Apr-24 15:01N 46°05' W 122°56'0 0.0
2017-Apr-24 14:30N 46°05' W 122°56'2 1.6
2017-Apr-24 13:30N 46°06' W 122°58'1 1.3
2017-Apr-24 13:00N 46°07' W 122°58'1 1.4
2017-Apr-24 12:31N 46°06' W 122°58'0 0.1
2017-Apr-24 12:00N 46°07' W 122°58'0 0.0
2017-Apr-24 11:30N 46°07' W 122°58'0 0.0
2017-Apr-24 11:00N 46°07' W 122°58'0 0.0
2017-Apr-24 10:30N 46°07' W 122°58'0 0.0
2017-Apr-24 10:01N 46°07' W 122°58'0 0.0
2017-Apr-24 09:30N 46°07' W 122°58'0 0.0
2017-Apr-24 09:00N 46°07' W 122°58'0 0.0
2017-Apr-24 08:30N 46°07' W 122°58'0 0.0
2017-Apr-24 08:00N 46°07' W 122°58'0 0.0
2017-Apr-24 07:31N 46°07' W 122°58'0 0.0
2017-Apr-24 07:00N 46°07' W 122°58'1 1.4
2017-Apr-24 06:31N 46°06' W 122°57'0 0.9
2017-Apr-24 06:00N 46°06' W 122°57'0 0.0
2017-Apr-24 05:30N 46°06' W 122°57'1 2.6
2017-Apr-24 05:01N 46°05' W 122°56'0 0.0
2017-Apr-24 04:31N 46°05' W 122°56'0 0.0
2017-Apr-24 03:53N 46°05' W 122°56'0 0.0
2017-Apr-24 03:30N 46°05' W 122°56'0 0.0
2017-Apr-24 03:01N 46°05' W 122°56'1 1.0
2017-Apr-24 02:30N 46°06' W 122°56'0 0.1
2017-Apr-24 02:00N 46°06' W 122°56'1 1.6
2017-Apr-24 01:30N 46°06' W 122°57'0 0.1
2017-Apr-24 01:00N 46°06' W 122°57'0 1.0
2017-Apr-24 00:31N 46°06' W 122°57'0 0.6
2017-Apr-24 00:00N 46°06' W 122°56'0 0.0
2017-Apr-23 23:31N 46°06' W 122°56'0 0.3
2017-Apr-23 23:01N 46°06' W 122°56'3 6.9
2017-Apr-23 22:31N 46°03' W 122°53'2 3.6
2017-Apr-23 22:00N 46°02' W 122°53'0 0.0
2017-Apr-23 21:31N 46°02' W 122°53'0 0.0
2017-Apr-23 20:55N 46°02' W 122°53'0 0.0
2017-Apr-23 20:30N 46°02' W 122°53'0 0.0
2017-Apr-23 20:00N 46°02' W 122°53'0 0.2
2017-Apr-23 19:31N 46°02' W 122°53'0 0.4
2017-Apr-23 19:00N 46°02' W 122°52'0 0.2
2017-Apr-23 18:31N 46°02' W 122°52'0 0.0
2017-Apr-23 18:00N 46°02' W 122°52'2 4.8
2017-Apr-23 17:31N 46°04' W 122°53'2 4.6
2017-Apr-23 17:00N 46°05' W 122°56'0 0.0
2017-Apr-23 16:31N 46°05' W 122°56'0 0.0
2017-Apr-23 16:00N 46°05' W 122°56'0 0.0
2017-Apr-23 15:30N 46°05' W 122°56'0 0.0
2017-Apr-23 15:00N 46°05' W 122°56'0 0.0
2017-Apr-23 14:00N 46°05' W 122°56'0 0.0
2017-Apr-23 13:30N 46°05' W 122°56'0 0.0
2017-Apr-23 13:00N 46°05' W 122°56'0 0.0
2017-Apr-23 12:31N 46°05' W 122°56'0 0.9
2017-Apr-23 12:00N 46°06' W 122°56'4 8.7
2017-Apr-23 11:30N 46°08' W 123°01'5 9.1
2017-Apr-23 11:00N 46°11' W 123°07'6 8.6
2017-Apr-23 10:18N 46°09' W 123°15'3 9.0
2017-Apr-23 10:01N 46°09' W 123°19'4 8.2
2017-Apr-23 09:30N 46°10' W 123°24'5 9.2
2017-Apr-23 09:01N 46°14' W 123°26'4 8.7
2017-Apr-23 08:31N 46°16' W 123°32'510.2
2017-Apr-23 08:00N 46°15' W 123°39'511.1
2017-Apr-23 07:31N 46°13' W 123°46'2 4.5
2017-Apr-23 07:01N 46°12' W 123°49'5 9.7
2017-Apr-23 06:31N 46°14' W 123°43'611.1
2017-Apr-23 06:00N 46°15' W 123°35'611.1
2017-Apr-23 05:31N 46°16' W 123°27'611.4
2017-Apr-23 05:01N 46°10' W 123°25'510.3
2017-Apr-23 04:30N 46°09' W 123°18'612.8
2017-Apr-23 04:00N 46°11' W 123°09'612.7
2017-Apr-23 03:31N 46°08' W 123°01'611.2
2017-Apr-23 03:00N 46°05' W 122°55'611.3
2017-Apr-23 02:30N 46°00' W 122°51'611.3
2017-Apr-23 02:00N 45°55' W 122°49'811.9
2017-Apr-23 01:22N 45°47' W 122°47'412.0
2017-Apr-23 01:00N 45°43' W 122°46'4 8.3
2017-Apr-23 00:30N 45°39' W 122°45'0 1.0
2017-Apr-23 00:00N 45°39' W 122°45'1 1.6
2017-Apr-22 23:30N 45°38' W 122°44'0 0.0
2017-Apr-22 23:00N 45°38' W 122°44'0 0.1
2017-Apr-22 22:31N 45°38' W 122°44'2 3.1
2017-Apr-22 22:00N 45°38' W 122°42'2 4.2
2017-Apr-22 21:30N 45°39' W 122°44'3 5.9
2017-Apr-22 21:00N 45°41' W 122°46'3 5.7
2017-Apr-22 20:30N 45°44' W 122°46'3 5.7
2017-Apr-22 20:00N 45°47' W 122°46'3 5.6
2017-Apr-22 19:30N 45°49' W 122°48'3 5.7
2017-Apr-22 19:00N 45°52' W 122°47'3 5.6
2017-Apr-22 18:30N 45°55' W 122°48'3 5.5
2017-Apr-22 18:00N 45°58' W 122°49'3 5.7
2017-Apr-22 17:31N 46°00' W 122°51'3 5.6
2017-Apr-22 17:00N 46°03' W 122°53'3 5.7
2017-Apr-22 16:30N 46°05' W 122°55'1 2.3
2017-Apr-22 16:00N 46°06' W 122°56'0 0.5
2017-Apr-22 15:31N 46°06' W 122°56'0 0.0
2017-Apr-22 15:00N 46°06' W 122°56'2 4.0
2017-Apr-22 14:31N 46°05' W 122°54'1 1.2
2017-Apr-22 13:31N 46°05' W 122°55'0 0.0
2017-Apr-22 13:00N 46°05' W 122°55'0 0.0
2017-Apr-22 12:30N 46°05' W 122°55'0 0.0
2017-Apr-22 12:01N 46°05' W 122°55'0 0.0
2017-Apr-22 11:30N 46°05' W 122°55'0 0.0
2017-Apr-22 11:00N 46°05' W 122°55'2 4.3
2017-Apr-22 10:30N 46°07' W 122°58'0 0.7
2017-Apr-22 10:00N 46°07' W 122°58'0 0.6
2017-Apr-22 09:30N 46°07' W 122°59'0 0.4
2017-Apr-22 09:01N 46°07' W 122°58'0 0.0
2017-Apr-22 08:30N 46°07' W 122°58'2 3.3
2017-Apr-22 08:00N 46°06' W 122°56'1 2.0
2017-Apr-22 07:31N 46°05' W 122°55'1 2.0
2017-Apr-22 07:01N 46°06' W 122°56'0 0.3
2017-Apr-22 06:30N 46°06' W 122°56'0 0.1
2017-Apr-22 06:01N 46°06' W 122°56'0 0.0
2017-Apr-22 05:30N 46°06' W 122°56'0 0.2
2017-Apr-22 05:01N 46°06' W 122°56'612.2
2017-Apr-22 04:31N 46°01' W 122°51'612.5
2017-Apr-22 04:01N 45°55' W 122°49'612.1
2017-Apr-22 03:30N 45°49' W 122°48'2 4.2
2017-Apr-22 03:00N 45°51' W 122°47'3 5.6
2017-Apr-22 02:30N 45°54' W 122°48'3 5.8
2017-Apr-22 02:01N 45°56' W 122°48'3 5.7
2017-Apr-22 01:30N 45°59' W 122°50'3 6.1
2017-Apr-22 01:00N 46°02' W 122°52'3 5.8
2017-Apr-22 00:31N 46°04' W 122°54'2 4.0
2017-Apr-22 00:01N 46°06' W 122°56'0 0.2
2017-Apr-21 23:30N 46°05' W 122°56'3 5.9
2017-Apr-21 23:00N 46°03' W 122°53'5 9.4
2017-Apr-21 22:30N 45°59' W 122°50'0 0.1
2017-Apr-21 22:01N 45°59' W 122°50'0 0.4
2017-Apr-21 21:31N 45°59' W 122°50'0 0.6
2017-Apr-21 21:00N 45°59' W 122°50'0 0.1
2017-Apr-21 20:31N 45°59' W 122°50'0 0.0
2017-Apr-21 20:01N 45°59' W 122°50'0 0.0
2017-Apr-21 19:31N 45°59' W 122°50'0 0.0
2017-Apr-21 19:01N 45°59' W 122°50'0 0.4
2017-Apr-21 18:31N 45°59' W 122°50'0 0.2
2017-Apr-21 18:00N 45°59' W 122°50'3 5.9
2017-Apr-21 17:31N 46°02' W 122°53'3 5.5
2017-Apr-21 17:00N 46°04' W 122°54'2 3.8
2017-Apr-21 16:30N 46°05' W 122°56'0 0.0
2017-Apr-21 16:01N 46°05' W 122°56'0 0.0
2017-Apr-21 15:30N 46°05' W 122°56'0 0.7
2017-Apr-21 15:00N 46°05' W 122°55'1 1.9
2017-Apr-21 14:31N 46°06' W 122°56'1 1.0
2017-Apr-21 13:31N 46°05' W 122°55'1 2.1
2017-Apr-21 13:00N 46°06' W 122°56'0 0.0
2017-Apr-21 12:31N 46°06' W 122°56'0 0.0
2017-Apr-21 12:00N 46°06' W 122°56'0 0.0
2017-Apr-21 11:31N 46°06' W 122°56'0 0.0
2017-Apr-21 11:00N 46°06' W 122°56'0 0.0
2017-Apr-21 10:30N 46°06' W 122°56'0 0.0
2017-Apr-21 10:00N 46°06' W 122°56'0 0.0
2017-Apr-21 09:30N 46°06' W 122°56'0 0.0
2017-Apr-21 09:01N 46°06' W 122°56'0 0.0
2017-Apr-21 08:30N 46°06' W 122°56'0 0.0
2017-Apr-21 08:01N 46°06' W 122°56'0 0.0
2017-Apr-21 07:31N 46°06' W 122°56'0 0.0
2017-Apr-21 07:01N 46°06' W 122°56'0 0.2
2017-Apr-21 06:31N 46°06' W 122°56'0 0.9
2017-Apr-21 06:00N 46°06' W 122°57'  
Track history (hours):
 
Tides and Currents Weather Stations Pressure Air Temp Water Temp Dewpoint Dewpoint Depression Visibility Wind Speed Wind Dir Waves Ship Positions

Sommer S

Owner: Shaver Transportation Company, Portland, OR. More information available from US FCC via Universal Licensing System and Coast Guard Vessel Documentation Center.

Last reported at 2017-May-01 06:00 UTC. Time now 2017-May-01 06:16 UTC.
Position N 46°03' W 122°53'.

Length 25 m; draft 16.5 m.

Type: Tug. MMSI: 367530080.

Date/timePositionNaut miles runAvg speedWind from/ knotsBaromVisibWave heightAir tempDewpointWater temp
2017-May-01 06:00N 46°03' W 122°53'0 0.0
2017-May-01 05:31N 46°03' W 122°53'0 0.0
2017-May-01 05:01N 46°03' W 122°53'0 0.0
2017-May-01 04:31N 46°03' W 122°53'0 0.0
2017-May-01 04:01N 46°03' W 122°53'0 0.0
2017-May-01 03:30N 46°03' W 122°53'0 0.0
2017-May-01 03:00N 46°03' W 122°53'0 0.0
2017-May-01 02:31N 46°03' W 122°53'0 0.0
2017-May-01 02:00N 46°03' W 122°53'0 0.0
2017-May-01 01:31N 46°03' W 122°53'0 0.0
2017-May-01 01:00N 46°03' W 122°53'0 0.0
2017-May-01 00:31N 46°03' W 122°53'0 0.0
2017-May-01 00:01N 46°03' W 122°53'0 0.0
2017-Apr-30 23:31N 46°03' W 122°53'0 0.0
2017-Apr-30 23:01N 46°03' W 122°53'0 0.0
2017-Apr-30 22:31N 46°03' W 122°53'0 0.0
2017-Apr-30 22:01N 46°03' W 122°53'0 0.1
2017-Apr-30 21:31N 46°03' W 122°53'0 0.0
2017-Apr-30 21:01N 46°03' W 122°53'3 5.8
2017-Apr-30 20:30N 46°05' W 122°55'1 2.7
2017-Apr-30 20:00N 46°06' W 122°56'0 0.4
2017-Apr-30 19:31N 46°06' W 122°57'0 0.4
2017-Apr-30 19:00N 46°06' W 122°56'0 0.0
2017-Apr-30 18:30N 46°06' W 122°56'0 0.0
2017-Apr-30 18:00N 46°06' W 122°56'0 0.0
2017-Apr-30 17:30N 46°06' W 122°56'0 0.0
2017-Apr-30 17:00N 46°06' W 122°56'1 2.9
2017-Apr-30 16:30N 46°05' W 122°55'713.8
2017-Apr-30 16:00N 45°59' W 122°50'0 0.2
2017-Apr-30 15:30N 45°59' W 122°50'0 0.1
2017-Apr-30 15:00N 45°59' W 122°50'0 0.2
2017-Apr-30 14:31N 45°59' W 122°50'1312.9
2017-Apr-30 13:30N 45°46' W 122°46'713.9
2017-Apr-30 13:00N 45°39' W 122°46'4 7.3
2017-Apr-30 12:30N 45°36' W 122°47'0 0.1
2017-Apr-30 12:00N 45°36' W 122°47'1 2.3
2017-Apr-30 11:30N 45°37' W 122°47'0 0.3
2017-Apr-30 11:00N 45°37' W 122°47'0 0.0
2017-Apr-30 10:30N 45°37' W 122°47'0 0.0
2017-Apr-30 10:00N 45°37' W 122°47'0 0.0
2017-Apr-30 09:30N 45°37' W 122°47'2 3.9
2017-Apr-30 09:00N 45°39' W 122°46'1 1.7
2017-Apr-30 08:30N 45°39' W 122°45'1 1.2
2017-Apr-30 08:00N 45°39' W 122°45'0 0.6
2017-Apr-30 07:30N 45°39' W 122°46'1 1.6
2017-Apr-30 07:00N 45°39' W 122°45'0 0.0
2017-Apr-30 06:30N 45°39' W 122°45'0 0.1
2017-Apr-30 06:00N 45°39' W 122°45'0 0.0
2017-Apr-30 05:30N 45°39' W 122°45'0 0.0
2017-Apr-30 05:00N 45°39' W 122°45'0 0.0
2017-Apr-30 04:30N 45°39' W 122°45'0 0.0
2017-Apr-30 04:00N 45°39' W 122°45'0 0.0
2017-Apr-30 03:30N 45°39' W 122°45'0 0.0
2017-Apr-30 03:00N 45°39' W 122°45'0 0.0
2017-Apr-30 02:30N 45°39' W 122°45'1 1.1
2017-Apr-30 02:00N 45°39' W 122°45'3 6.2
2017-Apr-30 01:30N 45°36' W 122°47'0 0.1
2017-Apr-30 01:00N 45°36' W 122°47'0 0.2
2017-Apr-30 00:30N 45°36' W 122°47'2 3.9
2017-Apr-30 00:00N 45°38' W 122°47'2 4.8
2017-Apr-29 23:30N 45°39' W 122°44'1 1.1
2017-Apr-29 23:00N 45°38' W 122°44'1 2.3
2017-Apr-29 22:30N 45°39' W 122°45'0 0.0
2017-Apr-29 22:00N 45°39' W 122°45'0 0.0
2017-Apr-29 21:30N 45°39' W 122°45'0 0.0
2017-Apr-29 21:00N 45°39' W 122°45'0 0.0
2017-Apr-29 20:30N 45°39' W 122°45'0 0.0
2017-Apr-29 20:00N 45°39' W 122°45'0 0.0
2017-Apr-29 19:30N 45°39' W 122°45'0 0.0
2017-Apr-29 19:00N 45°39' W 122°45'0 0.0
2017-Apr-29 18:30N 45°39' W 122°45'0 0.7
2017-Apr-29 18:00N 45°39' W 122°45'2 3.7
2017-Apr-29 17:30N 45°38' W 122°42'0 0.0
2017-Apr-29 17:00N 45°38' W 122°42'0 0.1
2017-Apr-29 16:30N 45°38' W 122°42'1 1.6
2017-Apr-29 16:00N 45°38' W 122°43'3 5.1
2017-Apr-29 15:30N 45°38' W 122°47'4 8.8
2017-Apr-29 15:00N 45°34' W 122°44'3 3.4
2017-Apr-29 14:00N 45°32' W 122°41'2 4.9
2017-Apr-29 13:30N 45°34' W 122°43'4 8.6
2017-Apr-29 13:00N 45°37' W 122°47'3 5.8
2017-Apr-29 12:30N 45°39' W 122°44'0 0.3
2017-Apr-29 12:00N 45°39' W 122°44'0 0.8
2017-Apr-29 11:30N 45°39' W 122°45'0 0.0
2017-Apr-29 11:00N 45°39' W 122°45'0 0.0
2017-Apr-29 10:30N 45°39' W 122°45'0 0.0
2017-Apr-29 10:00N 45°39' W 122°45'0 0.0
2017-Apr-29 09:30N 45°39' W 122°45'0 0.0
2017-Apr-29 09:00N 45°39' W 122°45'0 0.0
2017-Apr-29 08:30N 45°39' W 122°45'0 0.0
2017-Apr-29 08:00N 45°39' W 122°45'1 2.2
2017-Apr-29 07:30N 45°39' W 122°46'0 0.9
2017-Apr-29 07:00N 45°39' W 122°46'2 4.9
2017-Apr-29 06:30N 45°38' W 122°43'2 4.6
2017-Apr-29 06:00N 45°39' W 122°45'1 2.3
2017-Apr-29 05:30N 45°39' W 122°46'0 0.2
2017-Apr-29 05:00N 45°38' W 122°47'2 3.7
2017-Apr-29 04:30N 45°37' W 122°47'4 7.8
2017-Apr-29 04:00N 45°34' W 122°44'3 5.2
2017-Apr-29 03:30N 45°32' W 122°41'1 1.7
2017-Apr-29 03:00N 45°33' W 122°42'1 2.5
2017-Apr-29 02:30N 45°32' W 122°40'0 0.3
2017-Apr-29 02:00N 45°32' W 122°40'0 0.0
2017-Apr-29 01:30N 45°32' W 122°40'2 5.1
2017-Apr-29 01:00N 45°33' W 122°43'1 1.4
2017-Apr-29 00:30N 45°34' W 122°44'0 0.0
2017-Apr-29 00:00N 45°34' W 122°44'0 0.0
2017-Apr-28 23:30N 45°34' W 122°44'0 0.0
2017-Apr-28 23:00N 45°34' W 122°44'1 1.4
2017-Apr-28 22:30N 45°33' W 122°43'2 4.0
2017-Apr-28 22:00N 45°32' W 122°41'0 0.0
2017-Apr-28 21:30N 45°32' W 122°41'3 5.1
2017-Apr-28 21:00N 45°34' W 122°43'1 2.0
2017-Apr-28 20:30N 45°34' W 122°44'4 8.2
2017-Apr-28 20:00N 45°38' W 122°47'3 6.9
2017-Apr-28 19:30N 45°38' W 122°42'0 0.8
2017-Apr-28 19:00N 45°38' W 122°43'3 5.1
2017-Apr-28 18:30N 45°38' W 122°47'1 2.5
2017-Apr-28 18:00N 45°39' W 122°45'0 0.0
2017-Apr-28 17:30N 45°39' W 122°45'0 0.1
2017-Apr-28 17:00N 45°39' W 122°45'4 7.1
2017-Apr-28 16:30N 45°42' W 122°46'4 8.8
2017-Apr-28 16:00N 45°46' W 122°46'4 8.5
2017-Apr-28 15:30N 45°50' W 122°47'4 8.0
2017-Apr-28 15:00N 45°54' W 122°49'7 7.4
2017-Apr-28 14:00N 46°01' W 122°52'0 0.7
2017-Apr-28 13:30N 46°02' W 122°52'0 0.0
2017-Apr-28 13:00N 46°02' W 122°52'0 0.0
2017-Apr-28 12:30N 46°02' W 122°52'0 0.0
2017-Apr-28 12:00N 46°02' W 122°52'0 0.0
2017-Apr-28 11:30N 46°02' W 122°52'0 0.2
2017-Apr-28 11:00N 46°02' W 122°52'0 0.2
2017-Apr-28 10:30N 46°02' W 122°52'0 0.1
2017-Apr-28 10:00N 46°02' W 122°52'0 0.0
2017-Apr-28 09:30N 46°02' W 122°52'0 0.0
2017-Apr-28 09:00N 46°02' W 122°52'0 0.3
2017-Apr-28 08:30N 46°02' W 122°52'3 6.8
2017-Apr-28 08:00N 46°05' W 122°54'1 1.7
2017-Apr-28 07:30N 46°05' W 122°55'0 0.0
2017-Apr-28 07:00N 46°05' W 122°55'0 0.0
2017-Apr-28 06:30N 46°05' W 122°55'3 6.6
2017-Apr-28 06:00N 46°03' W 122°53'0 0.0
2017-Apr-28 05:30N 46°03' W 122°53'0 0.0
2017-Apr-28 05:00N 46°03' W 122°53'0 0.0
2017-Apr-28 04:30N 46°03' W 122°53'2 4.8
2017-Apr-28 04:00N 46°05' W 122°54'1 2.1
2017-Apr-28 03:30N 46°05' W 122°55'0 0.0
2017-Apr-28 03:00N 46°05' W 122°55'0 0.0
2017-Apr-28 02:30N 46°05' W 122°55'0 0.0
2017-Apr-28 02:00N 46°05' W 122°55'1 1.9
2017-Apr-28 01:30N 46°06' W 122°56'0 0.0
2017-Apr-28 01:00N 46°06' W 122°56'0 0.2
2017-Apr-28 00:30N 46°06' W 122°56'0 0.3
2017-Apr-28 00:00N 46°06' W 122°56'1 2.3
2017-Apr-27 23:30N 46°07' W 122°58'1 1.2
2017-Apr-27 23:00N 46°07' W 122°59'0 0.2
2017-Apr-27 22:30N 46°07' W 122°58'1 1.6
2017-Apr-27 22:00N 46°06' W 122°58'0 0.0
2017-Apr-27 21:31N 46°06' W 122°58'0 0.0
2017-Apr-27 21:00N 46°06' W 122°58'0 0.0
2017-Apr-27 20:30N 46°06' W 122°58'0 0.0
2017-Apr-27 20:00N 46°06' W 122°58'0 0.0
2017-Apr-27 19:31N 46°06' W 122°58'0 0.0
2017-Apr-27 19:00N 46°06' W 122°58'3 6.5
2017-Apr-27 18:31N 46°04' W 122°54'611.1
2017-Apr-27 18:01N 45°59' W 122°50'0 0.1
2017-Apr-27 17:31N 45°59' W 122°50'0 0.0
2017-Apr-27 17:01N 45°59' W 122°50'0 0.0
2017-Apr-27 16:31N 45°59' W 122°50'0 0.0
2017-Apr-27 16:00N 45°59' W 122°50'3 6.2
2017-Apr-27 15:30N 46°02' W 122°53'4 8.0
2017-Apr-27 15:01N 46°05' W 122°56'1 1.3
2017-Apr-27 14:01N 46°06' W 122°57'0 0.4
2017-Apr-27 13:30N 46°06' W 122°57'0 0.5
2017-Apr-27 13:01N 46°06' W 122°57'4 7.6
2017-Apr-27 12:31N 46°04' W 122°53'5 9.0
2017-Apr-27 12:01N 45°59' W 122°50'0 0.0
2017-Apr-27 11:30N 45°59' W 122°50'0 0.0
2017-Apr-27 11:01N 45°59' W 122°50'0 0.0
2017-Apr-27 10:31N 45°59' W 122°50'0 0.0
2017-Apr-27 10:00N 45°59' W 122°50'0 0.0
2017-Apr-27 09:31N 45°59' W 122°50'0 0.0
2017-Apr-27 09:01N 45°59' W 122°50'0 0.5
2017-Apr-27 08:30N 45°59' W 122°50'0 0.0
2017-Apr-27 08:00N 45°59' W 122°50'0 0.1
2017-Apr-27 07:31N 45°59' W 122°50'0 0.0
2017-Apr-27 07:01N 45°59' W 122°50'0 0.0
2017-Apr-27 06:31N 45°59' W 122°50'0 0.0
2017-Apr-27 06:00N 45°59' W 122°50'0 0.0
2017-Apr-27 05:30N 45°59' W 122°50'0 0.1
2017-Apr-27 05:01N 45°59' W 122°50'0 0.1
2017-Apr-27 04:30N 45°59' W 122°50'0 0.0
2017-Apr-27 04:01N 45°59' W 122°50'0 0.0
2017-Apr-27 03:31N 45°59' W 122°50'0 0.0
2017-Apr-27 03:01N 45°59' W 122°50'2 3.8
2017-Apr-27 02:30N 45°58' W 122°49'5 9.4
2017-Apr-27 02:00N 45°53' W 122°48'5 9.2
2017-Apr-27 01:30N 45°48' W 122°48'5 9.2
2017-Apr-27 01:00N 45°44' W 122°46'4 8.9
2017-Apr-27 00:30N 45°39' W 122°46'1 1.8
2017-Apr-27 00:00N 45°39' W 122°45'0 0.5
2017-Apr-26 23:30N 45°39' W 122°45'4 7.3
2017-Apr-26 23:00N 45°37' W 122°40'1 1.8
2017-Apr-26 22:30N 45°37' W 122°41'1 2.8
2017-Apr-26 21:59N 45°38' W 122°43'2 3.7
2017-Apr-26 21:30N 45°39' W 122°45'4 7.6
2017-Apr-26 21:00N 45°35' W 122°46'510.0
2017-Apr-26 20:30N 45°32' W 122°40'0 0.7
2017-Apr-26 20:00N 45°32' W 122°41'1 1.8
2017-Apr-26 19:30N 45°33' W 122°42'1 1.2
2017-Apr-26 19:00N 45°33' W 122°42'1 2.3
2017-Apr-26 18:30N 45°34' W 122°44'0 0.0
2017-Apr-26 18:01N 45°34' W 122°44'0 0.0
2017-Apr-26 17:30N 45°34' W 122°44'0 0.6
2017-Apr-26 17:00N 45°34' W 122°44'4 8.1
2017-Apr-26 16:30N 45°37' W 122°47'3 5.7
2017-Apr-26 16:00N 45°38' W 122°44'0 0.0
2017-Apr-26 15:30N 45°38' W 122°44'0 0.0
2017-Apr-26 15:00N 45°38' W 122°44'0 0.0
2017-Apr-26 14:30N 45°38' W 122°44'0 0.0
2017-Apr-26 13:30N 45°38' W 122°44'0 0.0
2017-Apr-26 13:00N 45°38' W 122°44'0 0.0
2017-Apr-26 12:30N 45°38' W 122°44'0 0.0
2017-Apr-26 12:00N 45°38' W 122°44'0 0.0
2017-Apr-26 11:30N 45°38' W 122°44'0 0.0
2017-Apr-26 11:00N 45°38' W 122°44'0 0.0
2017-Apr-26 10:30N 45°38' W 122°44'0 0.0
2017-Apr-26 10:00N 45°38' W 122°44'0 0.0
2017-Apr-26 09:30N 45°38' W 122°44'0 0.0
2017-Apr-26 09:00N 45°38' W 122°44'1 1.1
2017-Apr-26 08:30N 45°38' W 122°43'0 0.1
2017-Apr-26 08:00N 45°38' W 122°43'1 2.1
2017-Apr-26 07:30N 45°39' W 122°44'0 0.6
2017-Apr-26 07:00N 45°39' W 122°45'0 0.2
2017-Apr-26 06:31N 45°39' W 122°45'4 7.4
2017-Apr-26 06:00N 45°42' W 122°46'4 8.9
2017-Apr-26 05:30N 45°47' W 122°46'4 8.4
2017-Apr-26 05:01N 45°51' W 122°47'4 8.2
2017-Apr-26 04:31N 45°55' W 122°49'4 8.3
2017-Apr-26 04:00N 45°59' W 122°50'0 0.9
2017-Apr-26 03:30N 45°59' W 122°50'0 0.3
2017-Apr-26 03:00N 45°59' W 122°50'0 0.3
2017-Apr-26 02:31N 45°59' W 122°50'0 0.0
2017-Apr-26 02:01N 45°59' W 122°50'0 0.0
2017-Apr-26 01:31N 45°59' W 122°50'0 0.5
2017-Apr-26 01:00N 45°59' W 122°50'1 2.6
2017-Apr-26 00:30N 46°01' W 122°51'1 2.9
2017-Apr-26 00:00N 46°02' W 122°53'0 0.0
2017-Apr-25 23:31N 46°02' W 122°53'0 0.0
2017-Apr-25 23:01N 46°02' W 122°53'0 0.1
2017-Apr-25 22:30N 46°02' W 122°53'0 0.6
2017-Apr-25 22:00N 46°02' W 122°53'3 5.2
2017-Apr-25 21:30N 46°05' W 122°54'2 4.7
2017-Apr-25 21:00N 46°06' W 122°56'0 0.1
2017-Apr-25 20:30N 46°06' W 122°56'0 0.0
2017-Apr-25 20:00N 46°06' W 122°56'1 1.0
2017-Apr-25 19:30N 46°05' W 122°56'0 0.0
2017-Apr-25 19:00N 46°05' W 122°56'5 9.5
2017-Apr-25 18:31N 46°01' W 122°52'3 5.8
2017-Apr-25 18:01N 45°59' W 122°50'0 0.1
2017-Apr-25 17:31N 45°59' W 122°50'2 5.0
2017-Apr-25 17:01N 46°01' W 122°52'0 0.1
2017-Apr-25 16:30N 46°01' W 122°52'2 4.0
2017-Apr-25 16:00N 46°03' W 122°53'3 6.0
2017-Apr-25 15:30N 46°05' W 122°56'0 0.3
2017-Apr-25 15:00N 46°05' W 122°56'0 0.8
2017-Apr-25 14:30N 46°05' W 122°55'1010.2
2017-Apr-25 13:31N 45°56' W 122°48'2 4.3
2017-Apr-25 13:00N 45°58' W 122°50'1 1.7
2017-Apr-25 12:31N 45°59' W 122°50'0 0.0
2017-Apr-25 12:01N 45°59' W 122°50'0 0.0
2017-Apr-25 11:30N 45°59' W 122°50'0 0.0
2017-Apr-25 11:00N 45°59' W 122°50'3 5.5
2017-Apr-25 10:30N 46°01' W 122°52'1 2.4
2017-Apr-25 10:01N 46°03' W 122°53'1 2.0
2017-Apr-25 09:31N 46°04' W 122°53'2 4.4
2017-Apr-25 09:01N 46°05' W 122°55'1 1.3
2017-Apr-25 08:30N 46°05' W 122°56'0 0.0
2017-Apr-25 08:00N 46°05' W 122°56'0 0.0
2017-Apr-25 07:31N 46°05' W 122°56'0 0.0
2017-Apr-25 07:01N 46°05' W 122°56'0 0.0
2017-Apr-25 06:30N 46°05' W 122°56'0 0.0
2017-Apr-25 06:01N 46°05' W 122°56'0 0.0
2017-Apr-25 05:30N 46°05' W 122°56'0 0.0
2017-Apr-25 05:00N 46°05' W 122°56'0 0.0
2017-Apr-25 04:30N 46°05' W 122°56'0 0.0
2017-Apr-25 04:01N 46°05' W 122°56'0 0.0
2017-Apr-25 03:30N 46°05' W 122°56'0 0.0
2017-Apr-25 03:00N 46°05' W 122°56'0 0.0
2017-Apr-25 02:31N 46°05' W 122°56'0 0.0
2017-Apr-25 02:00N 46°05' W 122°56'0 0.0
2017-Apr-25 01:30N 46°05' W 122°56'0 0.0
2017-Apr-25 01:00N 46°05' W 122°56'0 0.0
2017-Apr-25 00:30N 46°05' W 122°56'0 0.0
2017-Apr-25 00:00N 46°05' W 122°56'0 0.0
2017-Apr-24 23:31N 46°05' W 122°56'0 0.0
2017-Apr-24 23:00N 46°05' W 122°56'0 0.0
2017-Apr-24 22:31N 46°05' W 122°56'0 0.0
2017-Apr-24 22:00N 46°05' W 122°56'0 0.0
2017-Apr-24 21:30N 46°05' W 122°56'0 0.0
2017-Apr-24 21:00N 46°05' W 122°56'0 0.0
2017-Apr-24 20:30N 46°05' W 122°56'0 0.0
2017-Apr-24 20:00N 46°05' W 122°56'0 0.0
2017-Apr-24 19:30N 46°05' W 122°56'0 0.0
2017-Apr-24 19:01N 46°05' W 122°56'0 0.0
2017-Apr-24 18:31N 46°05' W 122°56'0 0.0
2017-Apr-24 18:01N 46°05' W 122°56'0 0.0
2017-Apr-24 17:30N 46°05' W 122°56'0 0.0
2017-Apr-24 17:00N 46°05' W 122°56'0 0.0
2017-Apr-24 16:30N 46°05' W 122°56'0 0.0
2017-Apr-24 15:53N 46°05' W 122°56'0 0.0
2017-Apr-24 15:30N 46°05' W 122°56'0 0.0
2017-Apr-24 15:01N 46°05' W 122°56'0 0.0
2017-Apr-24 14:30N 46°05' W 122°56'2 1.6
2017-Apr-24 13:30N 46°06' W 122°58'1 1.3
2017-Apr-24 13:00N 46°07' W 122°58'1 1.4
2017-Apr-24 12:31N 46°06' W 122°58'0 0.1
2017-Apr-24 12:00N 46°07' W 122°58'0 0.0
2017-Apr-24 11:30N 46°07' W 122°58'0 0.0
2017-Apr-24 11:00N 46°07' W 122°58'0 0.0
2017-Apr-24 10:30N 46°07' W 122°58'0 0.0
2017-Apr-24 10:01N 46°07' W 122°58'0 0.0
2017-Apr-24 09:30N 46°07' W 122°58'0 0.0
2017-Apr-24 09:00N 46°07' W 122°58'0 0.0
2017-Apr-24 08:30N 46°07' W 122°58'0 0.0
2017-Apr-24 08:00N 46°07' W 122°58'0 0.0
2017-Apr-24 07:31N 46°07' W 122°58'0 0.0
2017-Apr-24 07:00N 46°07' W 122°58'1 1.4
2017-Apr-24 06:31N 46°06' W 122°57'0 0.9
2017-Apr-24 06:00N 46°06' W 122°57'0 0.0
2017-Apr-24 05:30N 46°06' W 122°57'1 2.6
2017-Apr-24 05:01N 46°05' W 122°56'0 0.0
2017-Apr-24 04:31N 46°05' W 122°56'0 0.0
2017-Apr-24 03:53N 46°05' W 122°56'0 0.0
2017-Apr-24 03:30N 46°05' W 122°56'0 0.0
2017-Apr-24 03:01N 46°05' W 122°56'1 1.0
2017-Apr-24 02:30N 46°06' W 122°56'0 0.1
2017-Apr-24 02:00N 46°06' W 122°56'1 1.6
2017-Apr-24 01:30N 46°06' W 122°57'0 0.1
2017-Apr-24 01:00N 46°06' W 122°57'0 1.0
2017-Apr-24 00:31N 46°06' W 122°57'0 0.6
2017-Apr-24 00:00N 46°06' W 122°56'0 0.0
2017-Apr-23 23:31N 46°06' W 122°56'0 0.3
2017-Apr-23 23:01N 46°06' W 122°56'3 6.9
2017-Apr-23 22:31N 46°03' W 122°53'2 3.6
2017-Apr-23 22:00N 46°02' W 122°53'0 0.0
2017-Apr-23 21:31N 46°02' W 122°53'0 0.0
2017-Apr-23 20:55N 46°02' W 122°53'0 0.0
2017-Apr-23 20:30N 46°02' W 122°53'0 0.0
2017-Apr-23 20:00N 46°02' W 122°53'0 0.2
2017-Apr-23 19:31N 46°02' W 122°53'0 0.4
2017-Apr-23 19:00N 46°02' W 122°52'0 0.2
2017-Apr-23 18:31N 46°02' W 122°52'0 0.0
2017-Apr-23 18:00N 46°02' W 122°52'2 4.8
2017-Apr-23 17:31N 46°04' W 122°53'2 4.6
2017-Apr-23 17:00N 46°05' W 122°56'0 0.0
2017-Apr-23 16:31N 46°05' W 122°56'0 0.0
2017-Apr-23 16:00N 46°05' W 122°56'0 0.0
2017-Apr-23 15:30N 46°05' W 122°56'0 0.0
2017-Apr-23 15:00N 46°05' W 122°56'0 0.0
2017-Apr-23 14:00N 46°05' W 122°56'0 0.0
2017-Apr-23 13:30N 46°05' W 122°56'0 0.0
2017-Apr-23 13:00N 46°05' W 122°56'0 0.0
2017-Apr-23 12:31N 46°05' W 122°56'0 0.9
2017-Apr-23 12:00N 46°06' W 122°56'4 8.7
2017-Apr-23 11:30N 46°08' W 123°01'5 9.1
2017-Apr-23 11:00N 46°11' W 123°07'6 8.6
2017-Apr-23 10:18N 46°09' W 123°15'3 9.0
2017-Apr-23 10:01N 46°09' W 123°19'4 8.2
2017-Apr-23 09:30N 46°10' W 123°24'5 9.2
2017-Apr-23 09:01N 46°14' W 123°26'4 8.7
2017-Apr-23 08:31N 46°16' W 123°32'510.2
2017-Apr-23 08:00N 46°15' W 123°39'511.1
2017-Apr-23 07:31N 46°13' W 123°46'2 4.5
2017-Apr-23 07:01N 46°12' W 123°49'5 9.7
2017-Apr-23 06:31N 46°14' W 123°43'611.1
2017-Apr-23 06:00N 46°15' W 123°35'611.1
2017-Apr-23 05:31N 46°16' W 123°27'611.4
2017-Apr-23 05:01N 46°10' W 123°25'510.3
2017-Apr-23 04:30N 46°09' W 123°18'612.8
2017-Apr-23 04:00N 46°11' W 123°09'612.7
2017-Apr-23 03:31N 46°08' W 123°01'611.2
2017-Apr-23 03:00N 46°05' W 122°55'611.3
2017-Apr-23 02:30N 46°00' W 122°51'611.3
2017-Apr-23 02:00N 45°55' W 122°49'811.9
2017-Apr-23 01:22N 45°47' W 122°47'412.0
2017-Apr-23 01:00N 45°43' W 122°46'4 8.3
2017-Apr-23 00:30N 45°39' W 122°45'0 1.0
2017-Apr-23 00:00N 45°39' W 122°45'1 1.6
2017-Apr-22 23:30N 45°38' W 122°44'0 0.0
2017-Apr-22 23:00N 45°38' W 122°44'0 0.1
2017-Apr-22 22:31N 45°38' W 122°44'2 3.1
2017-Apr-22 22:00N 45°38' W 122°42'2 4.2
2017-Apr-22 21:30N 45°39' W 122°44'3 5.9
2017-Apr-22 21:00N 45°41' W 122°46'3 5.7
2017-Apr-22 20:30N 45°44' W 122°46'3 5.7
2017-Apr-22 20:00N 45°47' W 122°46'3 5.6
2017-Apr-22 19:30N 45°49' W 122°48'3 5.7
2017-Apr-22 19:00N 45°52' W 122°47'3 5.6
2017-Apr-22 18:30N 45°55' W 122°48'3 5.5
2017-Apr-22 18:00N 45°58' W 122°49'3 5.7
2017-Apr-22 17:31N 46°00' W 122°51'3 5.6
2017-Apr-22 17:00N 46°03' W 122°53'3 5.7
2017-Apr-22 16:30N 46°05' W 122°55'1 2.3
2017-Apr-22 16:00N 46°06' W 122°56'0 0.5
2017-Apr-22 15:31N 46°06' W 122°56'0 0.0
2017-Apr-22 15:00N 46°06' W 122°56'2 4.0
2017-Apr-22 14:31N 46°05' W 122°54'1 1.2
2017-Apr-22 13:31N 46°05' W 122°55'0 0.0
2017-Apr-22 13:00N 46°05' W 122°55'0 0.0
2017-Apr-22 12:30N 46°05' W 122°55'0 0.0
2017-Apr-22 12:01N 46°05' W 122°55'0 0.0
2017-Apr-22 11:30N 46°05' W 122°55'0 0.0
2017-Apr-22 11:00N 46°05' W 122°55'2 4.3
2017-Apr-22 10:30N 46°07' W 122°58'0 0.7
2017-Apr-22 10:00N 46°07' W 122°58'0 0.6
2017-Apr-22 09:30N 46°07' W 122°59'0 0.4
2017-Apr-22 09:01N 46°07' W 122°58'0 0.0
2017-Apr-22 08:30N 46°07' W 122°58'2 3.3
2017-Apr-22 08:00N 46°06' W 122°56'1 2.0
2017-Apr-22 07:31N 46°05' W 122°55'1 2.0
2017-Apr-22 07:01N 46°06' W 122°56'0 0.3
2017-Apr-22 06:30N 46°06' W 122°56'0 0.1
2017-Apr-22 06:01N 46°06' W 122°56'0 0.0
2017-Apr-22 05:30N 46°06' W 122°56'0 0.2
2017-Apr-22 05:01N 46°06' W 122°56'612.2
2017-Apr-22 04:31N 46°01' W 122°51'612.5
2017-Apr-22 04:01N 45°55' W 122°49'612.1
2017-Apr-22 03:30N 45°49' W 122°48'2 4.2
2017-Apr-22 03:00N 45°51' W 122°47'3 5.6
2017-Apr-22 02:30N 45°54' W 122°48'3 5.8
2017-Apr-22 02:01N 45°56' W 122°48'3 5.7
2017-Apr-22 01:30N 45°59' W 122°50'3 6.1
2017-Apr-22 01:00N 46°02' W 122°52'3 5.8
2017-Apr-22 00:31N 46°04' W 122°54'2 4.0
2017-Apr-22 00:01N 46°06' W 122°56'0 0.2
2017-Apr-21 23:30N 46°05' W 122°56'3 5.9
2017-Apr-21 23:00N 46°03' W 122°53'5 9.4
2017-Apr-21 22:30N 45°59' W 122°50'0 0.1
2017-Apr-21 22:01N 45°59' W 122°50'0 0.4
2017-Apr-21 21:31N 45°59' W 122°50'0 0.6
2017-Apr-21 21:00N 45°59' W 122°50'0 0.1
2017-Apr-21 20:31N 45°59' W 122°50'0 0.0
2017-Apr-21 20:01N 45°59' W 122°50'0 0.0
2017-Apr-21 19:31N 45°59' W 122°50'0 0.0
2017-Apr-21 19:01N 45°59' W 122°50'0 0.4
2017-Apr-21 18:31N 45°59' W 122°50'0 0.2
2017-Apr-21 18:00N 45°59' W 122°50'3 5.9
2017-Apr-21 17:31N 46°02' W 122°53'3 5.5
2017-Apr-21 17:00N 46°04' W 122°54'2 3.8
2017-Apr-21 16:30N 46°05' W 122°56'0 0.0
2017-Apr-21 16:01N 46°05' W 122°56'0 0.0
2017-Apr-21 15:30N 46°05' W 122°56'0 0.7
2017-Apr-21 15:00N 46°05' W 122°55'1 1.9
2017-Apr-21 14:31N 46°06' W 122°56'1 1.0
2017-Apr-21 13:31N 46°05' W 122°55'1 2.1
2017-Apr-21 13:00N 46°06' W 122°56'0 0.0
2017-Apr-21 12:31N 46°06' W 122°56'0 0.0
2017-Apr-21 12:00N 46°06' W 122°56'0 0.0
2017-Apr-21 11:31N 46°06' W 122°56'0 0.0
2017-Apr-21 11:00N 46°06' W 122°56'0 0.0
2017-Apr-21 10:30N 46°06' W 122°56'0 0.0
2017-Apr-21 10:00N 46°06' W 122°56'0 0.0
2017-Apr-21 09:30N 46°06' W 122°56'0 0.0
2017-Apr-21 09:01N 46°06' W 122°56'0 0.0
2017-Apr-21 08:30N 46°06' W 122°56'0 0.0
2017-Apr-21 08:01N 46°06' W 122°56'0 0.0
2017-Apr-21 07:31N 46°06' W 122°56'0 0.0
2017-Apr-21 07:01N 46°06' W 122°56'0 0.2
2017-Apr-21 06:31N 46°06' W 122°56'0 0.9
2017-Apr-21 06:00N 46°06' W 122°57'  

Dump ship's entire track history